Phlox, Wisconsin
Current Conditions -  °F | °C
As of 2:35 AM on Friday 28 Nov 2014 (Local Time) from KAIG Reporting Station
Overcast Overcast  
Wind Chill:   Ceiling: 10000
Heat Index:   Visibility: 10mi
Dew Point: -2°   Wind: 0mph
Humidity: 88%   Direction: NA
Pressure: 30.24"   Gusts: NA
Location:  45.05°N, 89.01°W
Report Text: KAIG 280835Z AUTO 00000KT 10SM OVC100 M17/M19 A3024 RMK AO2 T11741190
Loading
Personal Weather Stations






























Interactive Weather Map New forecast layout! Learn more

10-Day Weather Forecast

Advertisements
Track Severe Weather on mobile